Detall de PIREP

Printer-friendly versionPDF version

[2011/04/23 10:14:00]
Flight IATA:CT1004
Pilot Number:042
Company ICAO:CAT
Aircraft Type:B744/E
PAX:300
Departing Airport: LEBL
Destination Airport: LFPG
Alternate Airport:EHRD
Online: VATSIM
Route:OKABI UN861 FISTO UY156 FOUCO UT181 POI/M080F220 UT182 KEPER
Flight Level:F330
No Slew and time accel
No pause
Crash detect
Detect pilot in Cockpit between each 30 and 45 minutes
10:14 Zero fuel Weight: 466688 Lbs, Fuel Weight: 254996 Lbs
10:14 VATSIM:LEBL 231000Z 17005KT 140V210 9999 FEW015 17/12 Q1009 NOSIG
10:14 VATSIM:LFPG 231000Z 01007KT 340V050 CAVOK 22/08 Q1010 NOSIG
10:14 VOICE CATALONIAN/EASTER CHARTER
10:16 Parking Brakes off
10:25 Take-off
10:25 Take off Weight: 719144 Lbs
10:25 Wind: 182 @ 006 Knots Heading: 244
10:25 POS N41 17 05 E002 04 56
10:25 Flaps:4 at 197 Knots
10:25 Gear Up: 198 Knots
10:26 Flaps:3 at 194 Knots
10:26 Flaps:2 at 203 Knots
10:27 Flaps:1 at 225 Knots
10:27 Flaps:0 at 252 Knots
10:40 Wind:114@029 Knots Heading: 356 Ground Speed: 499 Knots Altitude 28202 ft
10:45 TOC
10:45 Fuel Weight: 235981 Lb
10:55 Wind:096@020 Knots Heading: 346 Ground Speed: 489 Knots Altitude 32910 ft
11:10 Wind:109@007 Knots Heading: 351 Ground Speed: 490 Knots Altitude 32962 ft
11:19 TOD
11:19 Fuel Weight: 221607 Lb
11:25 Wind:113@008 Knots Heading: 022 Ground Speed: 382 Knots Altitude 21423 ft
11:37 Flaps:1 at 262 Knots
11:37 Gear Down: 262 Knots
11:39 Gear Up: 254 Knots
11:40 Wind:132@010 Knots Heading: 053 Ground Speed: 266 Knots Altitude 5282 ft
11:41 Flaps:2 at 203 Knots
11:41 Flaps:3 at 199 Knots
11:42 Flaps:4 at 199 Knots
11:42 Gear Down: 187 Knots
11:42 Flaps:5 at 171 Knots
11:44 TouchDown:Rate -229 ft/min Speed: 151 Knots
11:45 VATSIM:LFPG 231130Z 02010KT CAVOK 24/07 Q1010 NOSIG
11:45 Land
11:45 Wind:127@010 Knots
11:45 Heading: 085
11:45 Flight Duration: 01:20
11:45 Landing Weight: 682138 Lbs
11:45 POS N49 01 18 E002 32 05
11:56 Parking brakes on
11:56 Block to Block Duration: 01:40
11:56 Final Fuel: 211975 Lbls
11:56 Spent Fuel: 43020 Lbls
11:56 Flight Length: 518 NM
11:56 TOD Land Length: 103 NM

Exportar CSV

Powered by Drupal - Modified by Danger4k